FDB867 OMDB-OEDF
Flight info
| Callsign | FDB867 |
|---|---|
| Flight time | 0h 54m |
| Altitude | 26000 |
| Route | NABIX P699 ORMID DCT NARMI |
| Aircraft | B738/M-SDGIJ1LRWY/SB1 |
Departure
| Time | 2026-05-07 07:30 |
|---|---|
| Airport | Dubai International Airport (OMDB) |
Arrival
| Time | 2026-05-07 08:24 |
|---|---|
| Airport | King Fahd International Airport (OEDF) |
| Time | Latitude | Longitude | Altitude | Speed | Heading |
|---|---|---|---|---|---|
| 2026-05-07 06:57 | 25.26680 | 55.35370 | 69 ft | 0 kts | 31° |
| 2026-05-07 07:17 | 25.26677 | 55.35368 | 69 ft | 2 kts | 31° |
| 2026-05-07 07:17 | 25.26663 | 55.35358 | 69 ft | 2 kts | 31° |
| 2026-05-07 07:18 | 25.26651 | 55.35350 | 69 ft | 2 kts | 31° |
| 2026-05-07 07:18 | 25.26638 | 55.35342 | 69 ft | 2 kts | 31° |
| 2026-05-07 07:18 | 25.26626 | 55.35333 | 69 ft | 2 kts | 31° |
| 2026-05-07 07:18 | 25.26616 | 55.35321 | 69 ft | 2 kts | 75° |
| 2026-05-07 07:19 | 25.26616 | 55.35305 | 69 ft | 1 kts | 112° |
| 2026-05-07 07:19 | 25.26619 | 55.35299 | 69 ft | 1 kts | 127° |
| 2026-05-07 07:19 | 25.26621 | 55.35296 | 69 ft | 0 kts | 122° |
| 2026-05-07 07:21 | 25.26620 | 55.35297 | 69 ft | 1 kts | 122° |
| 2026-05-07 07:22 | 25.26609 | 55.35317 | 69 ft | 4 kts | 122° |
| 2026-05-07 07:22 | 25.26583 | 55.35362 | 69 ft | 9 kts | 121° |
| 2026-05-07 07:22 | 25.26539 | 55.35443 | 69 ft | 13 kts | 121° |
| 2026-05-07 07:22 | 25.26490 | 55.35528 | 69 ft | 12 kts | 122° |
| 2026-05-07 07:23 | 25.26443 | 55.35619 | 69 ft | 15 kts | 120° |
| 2026-05-07 07:23 | 25.26395 | 55.35695 | 69 ft | 11 kts | 150° |
| 2026-05-07 07:23 | 25.26319 | 55.35691 | 69 ft | 11 kts | 160° |
| 2026-05-07 07:23 | 25.26273 | 55.35753 | 69 ft | 10 kts | 121° |
| 2026-05-07 07:24 | 25.26227 | 55.35835 | 69 ft | 14 kts | 122° |
| 2026-05-07 07:24 | 25.26166 | 55.35944 | 69 ft | 18 kts | 122° |
| 2026-05-07 07:24 | 25.26095 | 55.36071 | 69 ft | 19 kts | 121° |
| 2026-05-07 07:24 | 25.26024 | 55.36196 | 69 ft | 18 kts | 120° |
| 2026-05-07 07:25 | 25.25866 | 55.36476 | 69 ft | 25 kts | 121° |
| 2026-05-07 07:25 | 25.25767 | 55.36659 | 69 ft | 29 kts | 121° |
| 2026-05-07 07:25 | 25.25658 | 55.36847 | 69 ft | 28 kts | 123° |
| 2026-05-07 07:26 | 25.25557 | 55.37037 | 69 ft | 30 kts | 119° |
| 2026-05-07 07:26 | 25.25449 | 55.37233 | 69 ft | 29 kts | 122° |
| 2026-05-07 07:26 | 25.25346 | 55.37418 | 69 ft | 27 kts | 123° |
| 2026-05-07 07:26 | 25.25249 | 55.37597 | 69 ft | 26 kts | 121° |
| 2026-05-07 07:27 | 25.25152 | 55.37769 | 70 ft | 25 kts | 120° |
| 2026-05-07 07:27 | 25.25062 | 55.37935 | 70 ft | 24 kts | 121° |
| 2026-05-07 07:27 | 25.24968 | 55.38089 | 70 ft | 20 kts | 123° |
| 2026-05-07 07:27 | 25.24921 | 55.38119 | 70 ft | 6 kts | 206° |
| 2026-05-07 07:28 | 25.24871 | 55.38089 | 70 ft | 10 kts | 208° |
| 2026-05-07 07:28 | 25.24813 | 55.38054 | 70 ft | 4 kts | 210° |
| 2026-05-07 07:28 | 25.24805 | 55.38034 | 70 ft | 2 kts | 278° |
| 2026-05-07 07:28 | 25.24827 | 55.37990 | 70 ft | 23 kts | 300° |
| 2026-05-07 07:29 | 25.25027 | 55.37631 | 70 ft | 86 kts | 303° |
| 2026-05-07 07:29 | 25.25440 | 55.36891 | 69 ft | 138 kts | 300° |
| 2026-05-07 07:29 | 25.26026 | 55.35831 | 71 ft | 181 kts | 297° |
| 2026-05-07 07:29 | 25.26720 | 55.34610 | 464 ft | 189 kts | 298° |
| 2026-05-07 07:30 | 25.27398 | 55.33421 | 1213 ft | 178 kts | 297° |
| 2026-05-07 07:30 | 25.28055 | 55.32206 | 1489 ft | 192 kts | 297° |
| 2026-05-07 07:30 | 25.28745 | 55.30911 | 1839 ft | 201 kts | 295° |
| 2026-05-07 07:30 | 25.29227 | 55.29484 | 2277 ft | 200 kts | 273° |
| 2026-05-07 07:31 | 25.29008 | 55.27971 | 2609 ft | 207 kts | 246° |
| 2026-05-07 07:31 | 25.28338 | 55.26505 | 2900 ft | 219 kts | 242° |
| 2026-05-07 07:31 | 25.27639 | 55.24982 | 3161 ft | 233 kts | 244° |
| 2026-05-07 07:31 | 25.26930 | 55.23337 | 3650 ft | 237 kts | 245° |
| 2026-05-07 07:32 | 25.26237 | 55.21695 | 4188 ft | 240 kts | 245° |
| 2026-05-07 07:32 | 25.25534 | 55.20026 | 4696 ft | 242 kts | 245° |
| 2026-05-07 07:32 | 25.24818 | 55.18333 | 5218 ft | 245 kts | 246° |
| 2026-05-07 07:32 | 25.24130 | 55.16597 | 5696 ft | 248 kts | 252° |
| 2026-05-07 07:33 | 25.23711 | 55.14738 | 6109 ft | 257 kts | 261° |
| 2026-05-07 07:33 | 25.23457 | 55.12719 | 6402 ft | 273 kts | 264° |
| 2026-05-07 07:33 | 25.23222 | 55.10609 | 6752 ft | 284 kts | 263° |
| 2026-05-07 07:33 | 25.22957 | 55.08425 | 7228 ft | 290 kts | 262° |
| 2026-05-07 07:34 | 25.22668 | 55.06221 | 7734 ft | 295 kts | 261° |
| 2026-05-07 07:34 | 25.22359 | 55.03963 | 8334 ft | 299 kts | 261° |
| 2026-05-07 07:34 | 25.22041 | 55.01665 | 8849 ft | 304 kts | 261° |
| 2026-05-07 07:34 | 25.21721 | 54.99355 | 9433 ft | 307 kts | 261° |
| 2026-05-07 07:35 | 25.21400 | 54.97027 | 9990 ft | 312 kts | 260° |
| 2026-05-07 07:35 | 25.21073 | 54.94643 | 10444 ft | 321 kts | 261° |
| 2026-05-07 07:35 | 25.20813 | 54.92121 | 10709 ft | 338 kts | 264° |
| 2026-05-07 07:35 | 25.20626 | 54.89500 | 10975 ft | 353 kts | 265° |
| 2026-05-07 07:36 | 25.20457 | 54.86737 | 11247 ft | 367 kts | 265° |
| 2026-05-07 07:36 | 25.20284 | 54.83945 | 11740 ft | 373 kts | 265° |
| 2026-05-07 07:36 | 25.20095 | 54.81059 | 12311 ft | 377 kts | 265° |
| 2026-05-07 07:36 | 25.19896 | 54.78153 | 12913 ft | 382 kts | 265° |
| 2026-05-07 07:37 | 25.19811 | 54.75243 | 13530 ft | 385 kts | 270° |
| 2026-05-07 07:37 | 25.19899 | 54.72311 | 14308 ft | 384 kts | 272° |
| 2026-05-07 07:37 | 25.20071 | 54.69393 | 14935 ft | 387 kts | 273° |
| 2026-05-07 07:37 | 25.20278 | 54.66431 | 15634 ft | 388 kts | 273° |
| 2026-05-07 07:38 | 25.20488 | 54.63442 | 16290 ft | 390 kts | 273° |
| 2026-05-07 07:38 | 25.20686 | 54.60490 | 16940 ft | 391 kts | 272° |
| 2026-05-07 07:38 | 25.20876 | 54.57497 | 17630 ft | 391 kts | 272° |
| 2026-05-07 07:38 | 25.21103 | 54.54515 | 18222 ft | 394 kts | 275° |
| 2026-05-07 07:39 | 25.21521 | 54.51516 | 18798 ft | 397 kts | 280° |
| 2026-05-07 07:39 | 25.22124 | 54.48581 | 19353 ft | 400 kts | 283° |
| 2026-05-07 07:39 | 25.22852 | 54.45594 | 19960 ft | 401 kts | 284° |
| 2026-05-07 07:39 | 25.23619 | 54.42639 | 20521 ft | 403 kts | 285° |
| 2026-05-07 07:40 | 25.24399 | 54.39681 | 21109 ft | 403 kts | 285° |
| 2026-05-07 07:40 | 25.25178 | 54.36713 | 21638 ft | 405 kts | 285° |
| 2026-05-07 07:40 | 25.25957 | 54.33718 | 22193 ft | 406 kts | 285° |
| 2026-05-07 07:40 | 25.26721 | 54.30749 | 22763 ft | 406 kts | 285° |
| 2026-05-07 07:41 | 25.27486 | 54.27737 | 23255 ft | 408 kts | 284° |
| 2026-05-07 07:41 | 25.28245 | 54.24711 | 23730 ft | 410 kts | 284° |
| 2026-05-07 07:41 | 25.29002 | 54.21670 | 24176 ft | 413 kts | 284° |
| 2026-05-07 07:41 | 25.29761 | 54.18609 | 24417 ft | 415 kts | 284° |
| 2026-05-07 07:42 | 25.30514 | 54.15564 | 24656 ft | 413 kts | 284° |
| 2026-05-07 07:42 | 25.31261 | 54.12520 | 24897 ft | 414 kts | 283° |
| 2026-05-07 07:42 | 25.31972 | 54.09409 | 25142 ft | 416 kts | 282° |
| 2026-05-07 07:42 | 25.32626 | 54.06349 | 25381 ft | 414 kts | 281° |
| 2026-05-07 07:43 | 25.33270 | 54.03246 | 25623 ft | 413 kts | 281° |
| 2026-05-07 07:43 | 25.33907 | 54.00152 | 25806 ft | 413 kts | 281° |
| 2026-05-07 07:43 | 25.34546 | 53.97051 | 25823 ft | 412 kts | 281° |
| 2026-05-07 07:43 | 25.35177 | 53.93998 | 25823 ft | 410 kts | 281° |
| 2026-05-07 07:44 | 25.35816 | 53.90923 | 25824 ft | 411 kts | 281° |
| 2026-05-07 07:44 | 25.36459 | 53.87841 | 25823 ft | 410 kts | 281° |
| 2026-05-07 07:44 | 25.37100 | 53.84776 | 25828 ft | 411 kts | 281° |
| 2026-05-07 07:44 | 25.37736 | 53.81741 | 25824 ft | 411 kts | 281° |
| 2026-05-07 07:45 | 25.38381 | 53.78669 | 25824 ft | 410 kts | 281° |
| 2026-05-07 07:45 | 25.39024 | 53.75608 | 25830 ft | 411 kts | 281° |
| 2026-05-07 07:45 | 25.39674 | 53.72509 | 25832 ft | 411 kts | 281° |
| 2026-05-07 07:45 | 25.40315 | 53.69453 | 25831 ft | 410 kts | 281° |
| 2026-05-07 07:46 | 25.40958 | 53.66386 | 25835 ft | 410 kts | 281° |
| 2026-05-07 07:46 | 25.41599 | 53.63321 | 25834 ft | 410 kts | 281° |
| 2026-05-07 07:46 | 25.42243 | 53.60236 | 25836 ft | 410 kts | 281° |
| 2026-05-07 07:46 | 25.42881 | 53.57179 | 25837 ft | 409 kts | 281° |
| 2026-05-07 07:47 | 25.43516 | 53.54131 | 25834 ft | 410 kts | 281° |
| 2026-05-07 07:47 | 25.44155 | 53.51062 | 25836 ft | 410 kts | 281° |
| 2026-05-07 07:47 | 25.44788 | 53.48018 | 25835 ft | 410 kts | 281° |
| 2026-05-07 07:47 | 25.45434 | 53.44908 | 25840 ft | 410 kts | 281° |
| 2026-05-07 07:48 | 25.46067 | 53.41860 | 25838 ft | 410 kts | 281° |
| 2026-05-07 07:48 | 25.46708 | 53.38769 | 25844 ft | 410 kts | 281° |
| 2026-05-07 07:48 | 25.47338 | 53.35725 | 25840 ft | 409 kts | 281° |
| 2026-05-07 07:48 | 25.47976 | 53.32641 | 25845 ft | 410 kts | 281° |
| 2026-05-07 07:49 | 25.48607 | 53.29585 | 25842 ft | 409 kts | 281° |
| 2026-05-07 07:49 | 25.49238 | 53.26529 | 25842 ft | 409 kts | 281° |
| 2026-05-07 07:49 | 25.49875 | 53.23438 | 25844 ft | 409 kts | 281° |
| 2026-05-07 07:49 | 25.50497 | 53.20410 | 25842 ft | 409 kts | 281° |
| 2026-05-07 07:50 | 25.51128 | 53.17336 | 25845 ft | 410 kts | 281° |
| 2026-05-07 07:50 | 25.51758 | 53.14262 | 25842 ft | 409 kts | 281° |
| 2026-05-07 07:50 | 25.52389 | 53.11179 | 25845 ft | 409 kts | 281° |
| 2026-05-07 07:50 | 25.53010 | 53.08146 | 25845 ft | 409 kts | 281° |
| 2026-05-07 07:51 | 25.53636 | 53.05080 | 25842 ft | 408 kts | 281° |
| 2026-05-07 07:51 | 25.54255 | 53.02046 | 25841 ft | 408 kts | 281° |
| 2026-05-07 07:51 | 25.54880 | 52.98978 | 25844 ft | 409 kts | 281° |
| 2026-05-07 07:51 | 25.55510 | 52.95882 | 25842 ft | 408 kts | 281° |
| 2026-05-07 07:52 | 25.56127 | 52.92848 | 25842 ft | 409 kts | 281° |
| 2026-05-07 07:52 | 25.56800 | 52.89766 | 25840 ft | 410 kts | 283° |
| 2026-05-07 07:52 | 25.57591 | 52.86773 | 25839 ft | 410 kts | 285° |
| 2026-05-07 07:52 | 25.58472 | 52.83765 | 25833 ft | 410 kts | 286° |
| 2026-05-07 07:53 | 25.59377 | 52.80793 | 25828 ft | 410 kts | 286° |
| 2026-05-07 07:53 | 25.60295 | 52.77800 | 25834 ft | 411 kts | 286° |
| 2026-05-07 07:53 | 25.61211 | 52.74797 | 25834 ft | 410 kts | 286° |
| 2026-05-07 07:53 | 25.62117 | 52.71802 | 25834 ft | 411 kts | 286° |
| 2026-05-07 07:54 | 25.63005 | 52.68838 | 25834 ft | 410 kts | 286° |
| 2026-05-07 07:54 | 25.63907 | 52.65808 | 25835 ft | 409 kts | 286° |
| 2026-05-07 07:54 | 25.64789 | 52.62823 | 25835 ft | 409 kts | 286° |
| 2026-05-07 07:54 | 25.65669 | 52.59837 | 25841 ft | 410 kts | 285° |
| 2026-05-07 07:55 | 25.66551 | 52.56831 | 25834 ft | 410 kts | 285° |
| 2026-05-07 07:55 | 25.67423 | 52.53858 | 25840 ft | 409 kts | 285° |
| 2026-05-07 07:55 | 25.68304 | 52.50845 | 25837 ft | 409 kts | 285° |
| 2026-05-07 07:55 | 25.69171 | 52.47879 | 25837 ft | 409 kts | 285° |
| 2026-05-07 07:56 | 25.70045 | 52.44883 | 25837 ft | 409 kts | 285° |
| 2026-05-07 07:56 | 25.70929 | 52.41852 | 25838 ft | 410 kts | 285° |
| 2026-05-07 07:56 | 25.71804 | 52.38846 | 25837 ft | 410 kts | 285° |
| 2026-05-07 07:56 | 25.72666 | 52.35888 | 25837 ft | 409 kts | 285° |
| 2026-05-07 07:57 | 25.73540 | 52.32883 | 25844 ft | 410 kts | 285° |
| 2026-05-07 07:57 | 25.74414 | 52.29876 | 25846 ft | 409 kts | 285° |
| 2026-05-07 07:57 | 25.75284 | 52.26881 | 25843 ft | 409 kts | 285° |
| 2026-05-07 07:57 | 25.76157 | 52.23873 | 25841 ft | 409 kts | 285° |
| 2026-05-07 07:58 | 25.77035 | 52.20843 | 25847 ft | 409 kts | 285° |
| 2026-05-07 07:58 | 25.77896 | 52.17871 | 25843 ft | 409 kts | 285° |
| 2026-05-07 07:58 | 25.78764 | 52.14875 | 25844 ft | 409 kts | 285° |
| 2026-05-07 07:58 | 25.79636 | 52.11856 | 25848 ft | 409 kts | 285° |
| 2026-05-07 07:59 | 25.80503 | 52.08857 | 25843 ft | 409 kts | 285° |
| 2026-05-07 07:59 | 25.81364 | 52.05872 | 25836 ft | 409 kts | 285° |
| 2026-05-07 07:59 | 25.82233 | 52.02860 | 25836 ft | 409 kts | 285° |
| 2026-05-07 07:59 | 25.83101 | 51.99847 | 25834 ft | 409 kts | 285° |
| 2026-05-07 08:00 | 25.83957 | 51.96873 | 25826 ft | 407 kts | 285° |
| 2026-05-07 08:00 | 25.84813 | 51.93898 | 25825 ft | 408 kts | 285° |
| 2026-05-07 08:00 | 25.85683 | 51.90868 | 25827 ft | 409 kts | 285° |
| 2026-05-07 08:00 | 25.86536 | 51.87901 | 25827 ft | 409 kts | 285° |
| 2026-05-07 08:01 | 25.87400 | 51.84887 | 25829 ft | 409 kts | 285° |
| 2026-05-07 08:01 | 25.88260 | 51.81890 | 25837 ft | 409 kts | 285° |
| 2026-05-07 08:01 | 25.89116 | 51.78902 | 25840 ft | 408 kts | 285° |
| 2026-05-07 08:01 | 25.89975 | 51.75904 | 25844 ft | 408 kts | 285° |
| 2026-05-07 08:02 | 25.90839 | 51.72883 | 25850 ft | 409 kts | 285° |
| 2026-05-07 08:02 | 25.91702 | 51.69867 | 25846 ft | 409 kts | 285° |
| 2026-05-07 08:02 | 25.92552 | 51.66891 | 25848 ft | 409 kts | 284° |
| 2026-05-07 08:02 | 25.93411 | 51.63878 | 25851 ft | 408 kts | 284° |
| 2026-05-07 08:03 | 25.94260 | 51.60901 | 25851 ft | 408 kts | 284° |
| 2026-05-07 08:03 | 25.95118 | 51.57890 | 25854 ft | 409 kts | 284° |
| 2026-05-07 08:03 | 25.95976 | 51.54875 | 25854 ft | 409 kts | 284° |
| 2026-05-07 08:03 | 25.96835 | 51.51852 | 25851 ft | 409 kts | 284° |
| 2026-05-07 08:04 | 25.97695 | 51.48828 | 25853 ft | 410 kts | 284° |
| 2026-05-07 08:04 | 25.98549 | 51.45817 | 25853 ft | 409 kts | 284° |
| 2026-05-07 08:04 | 25.99400 | 51.42815 | 25856 ft | 410 kts | 284° |
| 2026-05-07 08:04 | 26.00257 | 51.39785 | 25850 ft | 411 kts | 284° |
| 2026-05-07 08:05 | 26.01102 | 51.36800 | 25854 ft | 410 kts | 284° |
| 2026-05-07 08:05 | 26.01967 | 51.33744 | 25858 ft | 410 kts | 284° |
| 2026-05-07 08:05 | 26.02811 | 51.30756 | 25860 ft | 410 kts | 284° |
| 2026-05-07 08:05 | 26.03670 | 51.27714 | 25858 ft | 410 kts | 284° |
| 2026-05-07 08:06 | 26.04517 | 51.24709 | 25860 ft | 407 kts | 284° |
| 2026-05-07 08:06 | 26.05353 | 51.21756 | 25855 ft | 392 kts | 284° |
| 2026-05-07 08:06 | 26.06158 | 51.18910 | 25798 ft | 387 kts | 284° |
| 2026-05-07 08:06 | 26.06958 | 51.16065 | 25468 ft | 392 kts | 284° |
| 2026-05-07 08:07 | 26.07773 | 51.13158 | 24997 ft | 390 kts | 284° |
| 2026-05-07 08:07 | 26.08568 | 51.10325 | 24512 ft | 387 kts | 284° |
| 2026-05-07 08:07 | 26.09363 | 51.07486 | 24012 ft | 384 kts | 284° |
| 2026-05-07 08:07 | 26.10159 | 51.04639 | 23506 ft | 382 kts | 284° |
| 2026-05-07 08:08 | 26.10934 | 51.01872 | 23023 ft | 379 kts | 285° |
| 2026-05-07 08:08 | 26.11714 | 50.99088 | 22525 ft | 376 kts | 285° |
| 2026-05-07 08:08 | 26.12491 | 50.96310 | 22026 ft | 374 kts | 285° |
| 2026-05-07 08:08 | 26.13259 | 50.93563 | 21532 ft | 371 kts | 285° |
| 2026-05-07 08:09 | 26.14017 | 50.90848 | 21046 ft | 368 kts | 285° |
| 2026-05-07 08:09 | 26.14771 | 50.88145 | 20548 ft | 366 kts | 285° |
| 2026-05-07 08:09 | 26.15516 | 50.85473 | 20067 ft | 363 kts | 285° |
| 2026-05-07 08:09 | 26.16263 | 50.82795 | 19572 ft | 361 kts | 285° |
| 2026-05-07 08:10 | 26.16998 | 50.80157 | 19089 ft | 361 kts | 285° |
| 2026-05-07 08:10 | 26.17750 | 50.77451 | 18575 ft | 366 kts | 285° |
| 2026-05-07 08:10 | 26.18499 | 50.74752 | 18064 ft | 365 kts | 286° |
| 2026-05-07 08:10 | 26.19237 | 50.72092 | 17579 ft | 362 kts | 285° |
| 2026-05-07 08:11 | 26.19983 | 50.69405 | 17078 ft | 359 kts | 286° |
| 2026-05-07 08:11 | 26.20711 | 50.66776 | 16569 ft | 357 kts | 286° |
| 2026-05-07 08:11 | 26.21439 | 50.64145 | 16081 ft | 354 kts | 286° |
| 2026-05-07 08:11 | 26.22154 | 50.61557 | 15597 ft | 352 kts | 286° |
| 2026-05-07 08:12 | 26.22864 | 50.58987 | 15236 ft | 346 kts | 286° |
| 2026-05-07 08:12 | 26.23564 | 50.56454 | 15091 ft | 342 kts | 286° |
| 2026-05-07 08:12 | 26.24272 | 50.53883 | 14961 ft | 350 kts | 286° |
| 2026-05-07 08:12 | 26.24974 | 50.51263 | 14625 ft | 350 kts | 283° |
| 2026-05-07 08:13 | 26.25411 | 50.48632 | 13995 ft | 345 kts | 275° |
| 2026-05-07 08:13 | 26.25600 | 50.46002 | 13188 ft | 343 kts | 272° |
| 2026-05-07 08:13 | 26.25708 | 50.43387 | 12369 ft | 342 kts | 272° |
| 2026-05-07 08:13 | 26.25831 | 50.40779 | 11660 ft | 338 kts | 273° |
| 2026-05-07 08:14 | 26.25994 | 50.38213 | 11135 ft | 328 kts | 274° |
| 2026-05-07 08:14 | 26.26185 | 50.35728 | 10766 ft | 312 kts | 275° |
| 2026-05-07 08:14 | 26.26384 | 50.33374 | 10448 ft | 298 kts | 275° |
| 2026-05-07 08:14 | 26.26580 | 50.31136 | 10088 ft | 287 kts | 275° |
| 2026-05-07 08:15 | 26.26769 | 50.28966 | 9582 ft | 284 kts | 275° |
| 2026-05-07 08:15 | 26.26957 | 50.26791 | 9010 ft | 282 kts | 275° |
| 2026-05-07 08:15 | 26.27143 | 50.24614 | 8505 ft | 282 kts | 275° |
| 2026-05-07 08:15 | 26.27328 | 50.22447 | 8176 ft | 282 kts | 275° |
| 2026-05-07 08:16 | 26.27513 | 50.20276 | 7933 ft | 282 kts | 275° |
| 2026-05-07 08:16 | 26.27701 | 50.18084 | 7696 ft | 283 kts | 275° |
| 2026-05-07 08:16 | 26.27884 | 50.15928 | 7460 ft | 281 kts | 275° |
| 2026-05-07 08:16 | 26.28068 | 50.13770 | 7226 ft | 279 kts | 275° |
| 2026-05-07 08:17 | 26.28254 | 50.11598 | 6992 ft | 280 kts | 276° |
| 2026-05-07 08:17 | 26.28438 | 50.09447 | 6757 ft | 279 kts | 276° |
| 2026-05-07 08:17 | 26.28620 | 50.07313 | 6522 ft | 278 kts | 276° |
| 2026-05-07 08:17 | 26.28763 | 50.05159 | 6288 ft | 278 kts | 271° |
| 2026-05-07 08:18 | 26.28695 | 50.03024 | 6056 ft | 278 kts | 266° |
| 2026-05-07 08:18 | 26.28525 | 50.00894 | 5840 ft | 275 kts | 265° |
| 2026-05-07 08:18 | 26.28337 | 49.98804 | 5562 ft | 272 kts | 265° |
| 2026-05-07 08:18 | 26.28156 | 49.96694 | 5222 ft | 271 kts | 265° |
| 2026-05-07 08:19 | 26.27991 | 49.94633 | 4887 ft | 270 kts | 266° |
| 2026-05-07 08:19 | 26.27831 | 49.92560 | 4675 ft | 264 kts | 266° |
| 2026-05-07 08:19 | 26.27677 | 49.90543 | 4449 ft | 256 kts | 266° |
| 2026-05-07 08:19 | 26.27529 | 49.88612 | 4197 ft | 253 kts | 267° |
| 2026-05-07 08:20 | 26.27552 | 49.86660 | 3936 ft | 248 kts | 281° |
| 2026-05-07 08:20 | 26.28203 | 49.84956 | 3690 ft | 233 kts | 313° |
| 2026-05-07 08:20 | 26.29458 | 49.83956 | 3348 ft | 222 kts | 341° |
| 2026-05-07 08:20 | 26.30928 | 49.83566 | 3023 ft | 215 kts | 353° |
| 2026-05-07 08:21 | 26.32391 | 49.83225 | 2729 ft | 212 kts | 348° |
| 2026-05-07 08:21 | 26.33804 | 49.82775 | 2346 ft | 209 kts | 345° |
| 2026-05-07 08:21 | 26.35159 | 49.82334 | 2047 ft | 191 kts | 346° |
| 2026-05-07 08:21 | 26.36378 | 49.81965 | 1787 ft | 175 kts | 347° |
| 2026-05-07 08:22 | 26.37486 | 49.81630 | 1629 ft | 156 kts | 347° |
| 2026-05-07 08:22 | 26.38522 | 49.81312 | 1363 ft | 149 kts | 346° |
| 2026-05-07 08:22 | 26.39503 | 49.81011 | 1202 ft | 147 kts | 346° |
| 2026-05-07 08:22 | 26.40509 | 49.80704 | 1015 ft | 148 kts | 346° |
| 2026-05-07 08:23 | 26.41495 | 49.80400 | 822 ft | 146 kts | 345° |
| 2026-05-07 08:23 | 26.42459 | 49.80100 | 657 ft | 144 kts | 345° |
| 2026-05-07 08:23 | 26.43432 | 49.79807 | 466 ft | 143 kts | 346° |
| 2026-05-07 08:23 | 26.44393 | 49.79516 | 284 ft | 142 kts | 345° |
| 2026-05-07 08:24 | 26.45340 | 49.79225 | 110 ft | 141 kts | 345° |
| 2026-05-07 08:24 | 26.46226 | 49.78952 | 63 ft | 107 kts | 344° |
| 2026-05-07 08:24 | 26.46762 | 49.78786 | 63 ft | 56 kts | 344° |
| 2026-05-07 08:24 | 26.47028 | 49.78709 | 62 ft | 29 kts | 353° |
| 2026-05-07 08:25 | 26.47192 | 49.78739 | 61 ft | 21 kts | 12° |
| 2026-05-07 08:25 | 26.47308 | 49.78768 | 61 ft | 10 kts | 14° |
| 2026-05-07 08:25 | 26.47377 | 49.78786 | 61 ft | 9 kts | 12° |
| 2026-05-07 08:25 | 26.47438 | 49.78814 | 60 ft | 9 kts | 43° |
| 2026-05-07 08:26 | 26.47348 | 49.78930 | 59 ft | 15 kts | 165° |
| 2026-05-07 08:26 | 26.47222 | 49.78969 | 60 ft | 21 kts | 165° |
| 2026-05-07 08:26 | 26.47069 | 49.79016 | 61 ft | 22 kts | 164° |
| 2026-05-07 08:27 | 26.46980 | 49.79089 | 62 ft | 15 kts | 87° |
| 2026-05-07 08:27 | 26.47004 | 49.79191 | 65 ft | 11 kts | 74° |
| 2026-05-07 08:27 | 26.47023 | 49.79261 | 68 ft | 7 kts | 72° |
| 2026-05-07 08:27 | 26.47044 | 49.79295 | 70 ft | 3 kts | 43° |
| 2026-05-07 08:28 | 26.47058 | 49.79317 | 71 ft | 4 kts | 62° |
| 2026-05-07 08:28 | 26.47076 | 49.79357 | 72 ft | 5 kts | 64° |
| 2026-05-07 08:28 | 26.47088 | 49.79385 | 72 ft | 2 kts | 64° |
| 2026-05-07 08:28 | 26.47090 | 49.79387 | 72 ft | 0 kts | 64° |